Portada
METAR-TAF:

METAR-TAF

Aeropuertos :

Aeropuerto Internacional Hato

Curazao, Antillas Neerlandesas

latitud: 12-12N, longitud: 068-58W, altitud: 9 m

Observación

El informe se hizo hace 33 minutos, a las 03:00 UTC
Viento 12 kt del este
Temperatura 27°C
Humedad 79%
Presión 1015 hPa
Visibilidad 10 km o más

METAR: TNCC 250300Z AUTO 10012KT 9999 NCD 27/23 Q1015

Hora: 23:33 (03:33 UTC)

Pronóstico

El informe se hizo hace 6 horas y 3 minutos, a las 21:30 UTC
Pronóstico válido del 25 a las 00 UTC al 25 a las 24 UTC
Viento 12 kt del este
Visibilidad 10 km o más
Nubes dispersas a una altura de 1800 ft

TAF: TNCC 242130Z 2500/2524 10012KT 9999 SCT018

Observaciones y pronósticos meteorológicos de más de 4000 aeropuertos (mensajes METAR y TAF).

Los puntos amarillos y rojos representan las estaciones disponibles.

Ponga el ratón en el punto deseado para ver el nombre de la estación.

Haga clic para ver las observaciones y los pronósticos meteorológicos.

Para cambiar el mapa : haga clic en los botones verdes con una cruz de color negro para hacer un zoom, en el botón verde con un guión para alejar o en las flechas verdes para mapas adyacentes.


METAR-TAF: